Have a Safe July 4th! 

Flight Track Log - Related Links

Times and Time Zones

All times are in EDT time to prevent confusion due to time zone crossing. See the ASQ5401 flight status page for this flight to view local times or setup timezone preferences in your user account.

Time Position Orientation Groundspeed Altitude Reporting Facility
EDT Latitude Longitude Course Direction KTS MPH feet Rate Location/Type
Mon 02:11:55 PM 33.6203 -84.4728 118° Southeast 363 418 2,500  Level Atlanta Center
Mon 02:12:55 PM 33.5867 -84.5400 239° Southwest 294 338 4,300 2,250 Climbing Atlanta Center
Mon 02:13:55 PM 33.5342 -84.5944 221° Southwest 253 291 7,000 2,550 Climbing Atlanta Center
Mon 02:14:55 PM 33.4633 -84.5592 157° South 309 356 9,400 2,250 Climbing Atlanta Center
Mon 02:15:55 PM 33.4575 -84.4547 94° East 335 386 11,500 1,850 Climbing Atlanta Center
Mon 02:16:55 PM 33.4683 -84.3378 84° East 329 379 13,100 1,550 Climbing Atlanta Center
Mon 02:17:00 PM 33.6845 -83.9597 118° Southeast  Level FlightAware Approximate
Mon 02:17:55 PM 33.5122 -84.2281 64° Northeast 339 390 14,600  Level Atlanta Center
Mon 02:18:55 PM 33.5333 -84.1086 78° East 354 407 16,300 1,450 Climbing Atlanta Center
Mon 02:19:55 PM 33.5439 -83.9814 84° East 367 422 17,500 1,300 Climbing Atlanta Center
Mon 02:20:55 PM 33.5561 -83.8569 83° East 376 433 18,900 750 Climbing Atlanta Center
Mon 02:21:55 PM 33.5683 -83.7272 84° East 388 447 19,000 50 Climbing Atlanta Center
Mon 02:22:55 PM 33.5806 -83.5950 84° East 388 447 19,000  Level Atlanta Center
Mon 02:23:55 PM 33.5906 -83.4628 85° East 393 452 19,000  Level Atlanta Center
Mon 02:24:55 PM 33.6044 -83.3306 83° East 393 452 19,000  Level Atlanta Center
Mon 02:25:55 PM 33.6161 -83.1931 84° East 406 467 19,000  Level Atlanta Center
Mon 02:26:55 PM 33.6275 -83.0608 84° East 406 467 19,000 -500 Level Atlanta Center
Mon 02:27:55 PM 33.6203 -82.9286 94° East 395 455 18,000 -1,300 Descending Atlanta Center
Mon 02:28:55 PM 33.5878 -82.8069 108° East 390 449 16,400 -1,500 Descending Atlanta Center
Mon 02:29:55 PM 33.5614 -82.7000 106° East 375 432 15,000 -893 Descending Atlanta Center
Mon 02:30:56 PM 33.5708 -82.6028 83° East 318 366 14,600 -1,000 Descending Atlanta Center
Mon 02:31:55 PM 33.5800 -82.5028 84° East 280 322 13,000 -2,420 Descending Atlanta Center
Mon 02:32:55 PM 33.5978 -82.4228 75° East 261 300 9,800 -2,850 Descending Atlanta Center
Mon 02:33:55 PM 33.6114 -82.3425 78° East 255 293 7,300 -2,600 Descending Atlanta Center
Mon 02:34:55 PM 33.6019 -82.2656 98° East 236 272 4,600 -2,150 Descending Atlanta Center
Mon 02:35:55 PM 33.5925 -82.1933 99° East 231 266 3,000 -800 Descending Atlanta Center
Mon 02:36:55 PM 33.5728 -82.1339 112° Southeast 207 238 3,000 -100 Level Atlanta Center
Mon 02:37:55 PM 33.5447 -82.0797 122° Southeast 200 230 2,800 -200 Descending Atlanta Center
Mon 02:39:00 PM 33.4741 -82.0204 157° South  Level FlightAware Approximate
Mon 02:46:00 PM 33.3699 -81.9645 148° Southeast  Level Estimated
Mon 02:47:00 PM 33.3699 -81.9645 148° Southeast  Level Estimated
Mon 02:48:00 PM 33.3699 -81.9645 148° Southeast  Level Estimated
Mon 02:49:00 PM 33.3699 -81.9645 148° Southeast  Level Estimated
Mon 02:50:00 PM 33.3699 -81.9645 148° Southeast  Level Estimated
Mon 02:51:00 PM 33.3699 -81.9645 148° Southeast  Level Estimated

Login

Don't have an account? Register now (free) for customized features, flight alerts, and more!